sensor_id;sensor_type;location;lat;lon;timestamp;temperature;humidity
54429;DHT22;40337;52.978;6.310;2023-02-28T00:00:50;4.10;99.90
54429;DHT22;40337;52.978;6.310;2023-02-28T00:03:16;4.10;99.90
54429;DHT22;40337;52.978;6.310;2023-02-28T00:05:41;4.10;99.90
54429;DHT22;40337;52.978;6.310;2023-02-28T00:08:08;4.10;99.90
54429;DHT22;40337;52.978;6.310;2023-02-28T00:10:34;4.10;99.90
54429;DHT22;40337;52.978;6.310;2023-02-28T00:13:02;4.10;99.90
54429;DHT22;40337;52.978;6.310;2023-02-28T00:15:28;4.10;99.90
54429;DHT22;40337;52.978;6.310;2023-02-28T00:17:54;4.20;99.90
54429;DHT22;40337;52.978;6.310;2023-02-28T00:20:20;4.10;99.90
54429;DHT22;40337;52.978;6.310;2023-02-28T00:22:49;4.10;99.90
54429;DHT22;40337;52.978;6.310;2023-02-28T00:25:18;4.10;99.90
54429;DHT22;40337;52.978;6.310;2023-02-28T00:27:44;4.10;99.90
54429;DHT22;40337;52.978;6.310;2023-02-28T00:30:12;4.10;99.90
54429;DHT22;40337;52.978;6.310;2023-02-28T00:32:38;4.10;99.90
54429;DHT22;40337;52.978;6.310;2023-02-28T00:35:05;4.10;99.90
54429;DHT22;40337;52.978;6.310;2023-02-28T00:37:31;4.10;99.90
54429;DHT22;40337;52.978;6.310;2023-02-28T00:39:56;4.00;99.90
54429;DHT22;40337;52.978;6.310;2023-02-28T00:42:22;4.00;99.90
54429;DHT22;40337;52.978;6.310;2023-02-28T00:44:48;4.00;99.90
54429;DHT22;40337;52.978;6.310;2023-02-28T00:47:13;3.90;99.90
54429;DHT22;40337;52.978;6.310;2023-02-28T00:49:39;4.10;99.90
54429;DHT22;40337;52.978;6.310;2023-02-28T00:52:05;4.10;99.90
54429;DHT22;40337;52.978;6.310;2023-02-28T00:54:30;4.10;99.90
54429;DHT22;40337;52.978;6.310;2023-02-28T00:56:56;4.10;99.90
54429;DHT22;40337;52.978;6.310;2023-02-28T00:59:21;4.10;99.90
54429;DHT22;40337;52.978;6.310;2023-02-28T01:01:47;4.10;99.90
54429;DHT22;40337;52.978;6.310;2023-02-28T01:04:13;4.10;99.90
54429;DHT22;40337;52.978;6.310;2023-02-28T01:06:39;4.10;99.90
54429;DHT22;40337;52.978;6.310;2023-02-28T01:09:06;4.10;99.90
54429;DHT22;40337;52.978;6.310;2023-02-28T01:11:32;4.10;99.90
54429;DHT22;40337;52.978;6.310;2023-02-28T01:13:58;4.10;99.90
54429;DHT22;40337;52.978;6.310;2023-02-28T01:16:24;4.20;99.90
54429;DHT22;40337;52.978;6.310;2023-02-28T01:18:50;4.10;99.90
54429;DHT22;40337;52.978;6.310;2023-02-28T01:21:17;4.10;99.90
54429;DHT22;40337;52.978;6.310;2023-02-28T01:23:43;4.10;99.90
54429;DHT22;40337;52.978;6.310;2023-02-28T01:26:14;4.10;99.90
54429;DHT22;40337;52.978;6.310;2023-02-28T01:28:40;4.10;99.90
54429;DHT22;40337;52.978;6.310;2023-02-28T01:31:06;4.10;99.90
54429;DHT22;40337;52.978;6.310;2023-02-28T01:33:33;4.10;99.90
54429;DHT22;40337;52.978;6.310;2023-02-28T01:36:04;4.10;99.90
54429;DHT22;40337;52.978;6.310;2023-02-28T01:38:30;4.20;99.90
54429;DHT22;40337;52.978;6.310;2023-02-28T01:40:56;4.20;99.90
54429;DHT22;40337;52.978;6.310;2023-02-28T01:43:27;4.20;99.90
54429;DHT22;40337;52.978;6.310;2023-02-28T01:45:55;4.20;99.90
54429;DHT22;40337;52.978;6.310;2023-02-28T01:48:24;4.20;99.90
54429;DHT22;40337;52.978;6.310;2023-02-28T01:50:51;4.20;99.90
54429;DHT22;40337;52.978;6.310;2023-02-28T01:53:32;4.30;99.90
54429;DHT22;40337;52.978;6.310;2023-02-28T01:55:58;4.30;99.90
54429;DHT22;40337;52.978;6.310;2023-02-28T01:58:24;4.30;99.90
54429;DHT22;40337;52.978;6.310;2023-02-28T02:00:50;4.30;99.90
54429;DHT22;40337;52.978;6.310;2023-02-28T02:03:18;4.30;99.90
54429;DHT22;40337;52.978;6.310;2023-02-28T02:05:45;4.30;99.90
54429;DHT22;40337;52.978;6.310;2023-02-28T02:08:17;4.30;99.90
54429;DHT22;40337;52.978;6.310;2023-02-28T02:10:46;4.30;99.90
54429;DHT22;40337;52.978;6.310;2023-02-28T02:13:34;4.30;99.90
54429;DHT22;40337;52.978;6.310;2023-02-28T02:16:16;4.30;99.90
54429;DHT22;40337;52.978;6.310;2023-02-28T02:18:55;4.30;99.90
54429;DHT22;40337;52.978;6.310;2023-02-28T02:27:16;4.20;99.90
54429;DHT22;40337;52.978;6.310;2023-02-28T02:33:02;4.10;99.90
54429;DHT22;40337;52.978;6.310;2023-02-28T02:35:45;4.10;99.90
54429;DHT22;40337;52.978;6.310;2023-02-28T02:43:44;4.00;99.90
54429;DHT22;40337;52.978;6.310;2023-02-28T02:48:56;4.10;99.90
54429;DHT22;40337;52.978;6.310;2023-02-28T02:51:24;4.00;99.90
54429;DHT22;40337;52.978;6.310;2023-02-28T02:53:58;4.00;99.90
54429;DHT22;40337;52.978;6.310;2023-02-28T02:56:28;4.00;99.90
54429;DHT22;40337;52.978;6.310;2023-02-28T02:59:01;4.00;99.90
54429;DHT22;40337;52.978;6.310;2023-02-28T03:01:29;4.10;99.90
54429;DHT22;40337;52.978;6.310;2023-02-28T03:03:58;4.10;99.90
54429;DHT22;40337;52.978;6.310;2023-02-28T03:06:25;4.10;99.90
54429;DHT22;40337;52.978;6.310;2023-02-28T03:08:51;4.10;99.90
54429;DHT22;40337;52.978;6.310;2023-02-28T03:11:17;4.10;99.90
54429;DHT22;40337;52.978;6.310;2023-02-28T03:16:33;4.20;99.90
54429;DHT22;40337;52.978;6.310;2023-02-28T03:21:43;4.20;99.90
54429;DHT22;40337;52.978;6.310;2023-02-28T03:27:06;4.20;99.90
54429;DHT22;40337;52.978;6.310;2023-02-28T03:29:40;4.20;99.90
54429;DHT22;40337;52.978;6.310;2023-02-28T03:32:17;4.20;99.90
54429;DHT22;40337;52.978;6.310;2023-02-28T03:35:09;4.20;99.90
54429;DHT22;40337;52.978;6.310;2023-02-28T03:37:39;4.20;99.90
54429;DHT22;40337;52.978;6.310;2023-02-28T03:40:15;4.20;99.90
54429;DHT22;40337;52.978;6.310;2023-02-28T03:42:44;4.20;99.90
54429;DHT22;40337;52.978;6.310;2023-02-28T03:45:15;4.20;99.90
54429;DHT22;40337;52.978;6.310;2023-02-28T03:47:47;4.20;99.90
54429;DHT22;40337;52.978;6.310;2023-02-28T03:50:32;4.20;99.90
54429;DHT22;40337;52.978;6.310;2023-02-28T03:53:04;4.20;99.90
54429;DHT22;40337;52.978;6.310;2023-02-28T03:55:45;4.10;99.90
54429;DHT22;40337;52.978;6.310;2023-02-28T04:01:13;4.00;99.90
54429;DHT22;40337;52.978;6.310;2023-02-28T04:03:40;3.90;99.90
54429;DHT22;40337;52.978;6.310;2023-02-28T04:06:07;3.90;99.90
54429;DHT22;40337;52.978;6.310;2023-02-28T04:08:37;3.90;99.90
54429;DHT22;40337;52.978;6.310;2023-02-28T04:11:25;3.80;99.90
54429;DHT22;40337;52.978;6.310;2023-02-28T04:13:53;3.80;99.90
54429;DHT22;40337;52.978;6.310;2023-02-28T04:16:18;3.80;99.90
54429;DHT22;40337;52.978;6.310;2023-02-28T04:18:44;3.80;99.90
54429;DHT22;40337;52.978;6.310;2023-02-28T04:21:10;3.80;99.90
54429;DHT22;40337;52.978;6.310;2023-02-28T04:23:36;3.70;99.90
54429;DHT22;40337;52.978;6.310;2023-02-28T04:26:02;3.80;99.90
54429;DHT22;40337;52.978;6.310;2023-02-28T04:28:27;3.70;99.90
54429;DHT22;40337;52.978;6.310;2023-02-28T04:31:02;3.70;99.90
54429;DHT22;40337;52.978;6.310;2023-02-28T04:33:28;3.70;99.90
54429;DHT22;40337;52.978;6.310;2023-02-28T04:36:02;3.70;99.90
54429;DHT22;40337;52.978;6.310;2023-02-28T04:38:32;3.70;99.90
54429;DHT22;40337;52.978;6.310;2023-02-28T04:40:59;3.70;99.90
54429;DHT22;40337;52.978;6.310;2023-02-28T04:43:29;3.70;99.90
54429;DHT22;40337;52.978;6.310;2023-02-28T04:45:56;3.70;99.90
54429;DHT22;40337;52.978;6.310;2023-02-28T04:48:27;3.70;99.90
54429;DHT22;40337;52.978;6.310;2023-02-28T04:50:53;3.70;99.90
54429;DHT22;40337;52.978;6.310;2023-02-28T04:53:19;3.70;99.90
54429;DHT22;40337;52.978;6.310;2023-02-28T04:55:45;3.60;99.90
54429;DHT22;40337;52.978;6.310;2023-02-28T04:58:11;3.60;99.90
54429;DHT22;40337;52.978;6.310;2023-02-28T05:00:37;3.60;99.90
54429;DHT22;40337;52.978;6.310;2023-02-28T05:03:03;3.60;99.90
54429;DHT22;40337;52.978;6.310;2023-02-28T05:05:28;3.60;99.90
54429;DHT22;40337;52.978;6.310;2023-02-28T05:07:54;3.60;99.90
54429;DHT22;40337;52.978;6.310;2023-02-28T05:10:24;3.50;99.90
54429;DHT22;40337;52.978;6.310;2023-02-28T05:12:49;3.40;99.90
54429;DHT22;40337;52.978;6.310;2023-02-28T05:15:16;3.40;99.90
54429;DHT22;40337;52.978;6.310;2023-02-28T05:17:42;3.30;99.90
54429;DHT22;40337;52.978;6.310;2023-02-28T05:20:09;3.30;99.90
54429;DHT22;40337;52.978;6.310;2023-02-28T05:22:36;3.30;99.90
54429;DHT22;40337;52.978;6.310;2023-02-28T05:25:03;3.30;99.90
54429;DHT22;40337;52.978;6.310;2023-02-28T05:27:30;3.20;99.90
54429;DHT22;40337;52.978;6.310;2023-02-28T05:29:56;3.20;99.90
54429;DHT22;40337;52.978;6.310;2023-02-28T05:32:21;3.20;99.90
54429;DHT22;40337;52.978;6.310;2023-02-28T05:34:47;3.20;99.90
54429;DHT22;40337;52.978;6.310;2023-02-28T05:37:13;3.20;99.90
54429;DHT22;40337;52.978;6.310;2023-02-28T05:39:40;3.20;99.90
54429;DHT22;40337;52.978;6.310;2023-02-28T05:42:05;3.20;99.90
54429;DHT22;40337;52.978;6.310;2023-02-28T05:44:32;3.20;99.90
54429;DHT22;40337;52.978;6.310;2023-02-28T05:46:57;3.20;99.90
54429;DHT22;40337;52.978;6.310;2023-02-28T05:49:23;3.20;99.90
54429;DHT22;40337;52.978;6.310;2023-02-28T05:51:49;3.10;99.90
54429;DHT22;40337;52.978;6.310;2023-02-28T05:54:14;3.10;99.90
54429;DHT22;40337;52.978;6.310;2023-02-28T05:56:40;3.10;99.90
54429;DHT22;40337;52.978;6.310;2023-02-28T05:59:09;3.10;99.90
54429;DHT22;40337;52.978;6.310;2023-02-28T06:01:37;3.00;99.90
54429;DHT22;40337;52.978;6.310;2023-02-28T06:04:05;3.00;99.90
54429;DHT22;40337;52.978;6.310;2023-02-28T06:06:31;3.00;99.90
54429;DHT22;40337;52.978;6.310;2023-02-28T06:08:59;3.00;99.90
54429;DHT22;40337;52.978;6.310;2023-02-28T06:11:26;3.00;99.90
54429;DHT22;40337;52.978;6.310;2023-02-28T06:13:59;2.90;99.90
54429;DHT22;40337;52.978;6.310;2023-02-28T06:16:27;2.90;99.90
54429;DHT22;40337;52.978;6.310;2023-02-28T06:18:52;2.90;99.90
54429;DHT22;40337;52.978;6.310;2023-02-28T06:21:21;2.90;99.90
54429;DHT22;40337;52.978;6.310;2023-02-28T06:23:47;2.90;99.90
54429;DHT22;40337;52.978;6.310;2023-02-28T06:26:12;2.90;99.90
54429;DHT22;40337;52.978;6.310;2023-02-28T06:28:38;2.90;99.90
54429;DHT22;40337;52.978;6.310;2023-02-28T06:31:08;2.90;99.90
54429;DHT22;40337;52.978;6.310;2023-02-28T06:33:34;2.90;99.90
54429;DHT22;40337;52.978;6.310;2023-02-28T06:36:00;2.90;99.90
54429;DHT22;40337;52.978;6.310;2023-02-28T06:38:26;2.90;99.90
54429;DHT22;40337;52.978;6.310;2023-02-28T06:40:56;2.90;99.90
54429;DHT22;40337;52.978;6.310;2023-02-28T06:43:24;2.90;99.90
54429;DHT22;40337;52.978;6.310;2023-02-28T06:45:49;2.80;99.90
54429;DHT22;40337;52.978;6.310;2023-02-28T06:48:16;2.80;99.90
54429;DHT22;40337;52.978;6.310;2023-02-28T06:50:41;2.70;99.90
54429;DHT22;40337;52.978;6.310;2023-02-28T06:53:07;2.70;99.90
54429;DHT22;40337;52.978;6.310;2023-02-28T06:55:33;2.60;99.90
54429;DHT22;40337;52.978;6.310;2023-02-28T06:57:58;2.60;99.90
54429;DHT22;40337;52.978;6.310;2023-02-28T07:00:24;2.60;99.90
54429;DHT22;40337;52.978;6.310;2023-02-28T07:02:50;2.70;99.90
54429;DHT22;40337;52.978;6.310;2023-02-28T07:05:16;2.70;99.90
54429;DHT22;40337;52.978;6.310;2023-02-28T07:07:41;2.70;99.90
54429;DHT22;40337;52.978;6.310;2023-02-28T07:10:12;2.70;99.90
54429;DHT22;40337;52.978;6.310;2023-02-28T07:12:39;2.70;99.90
54429;DHT22;40337;52.978;6.310;2023-02-28T07:15:06;2.70;99.90
54429;DHT22;40337;52.978;6.310;2023-02-28T07:17:31;2.70;99.90
54429;DHT22;40337;52.978;6.310;2023-02-28T07:19:57;2.70;99.90
54429;DHT22;40337;52.978;6.310;2023-02-28T07:22:22;2.70;99.90
54429;DHT22;40337;52.978;6.310;2023-02-28T07:24:48;2.70;99.90
54429;DHT22;40337;52.978;6.310;2023-02-28T07:27:14;2.80;99.90
54429;DHT22;40337;52.978;6.310;2023-02-28T07:29:49;2.80;99.90
54429;DHT22;40337;52.978;6.310;2023-02-28T07:32:15;2.80;99.90
54429;DHT22;40337;52.978;6.310;2023-02-28T07:34:40;2.80;99.90
54429;DHT22;40337;52.978;6.310;2023-02-28T07:37:06;2.80;99.90
54429;DHT22;40337;52.978;6.310;2023-02-28T07:39:31;2.90;99.90
54429;DHT22;40337;52.978;6.310;2023-02-28T07:41:57;2.90;99.90
54429;DHT22;40337;52.978;6.310;2023-02-28T07:44:23;2.90;99.90
54429;DHT22;40337;52.978;6.310;2023-02-28T07:46:48;2.90;99.90
54429;DHT22;40337;52.978;6.310;2023-02-28T07:49:14;3.00;99.90
54429;DHT22;40337;52.978;6.310;2023-02-28T07:51:40;2.90;99.90
54429;DHT22;40337;52.978;6.310;2023-02-28T07:54:05;2.90;99.90
54429;DHT22;40337;52.978;6.310;2023-02-28T07:56:31;2.90;99.90
54429;DHT22;40337;52.978;6.310;2023-02-28T07:58:56;3.00;99.90
54429;DHT22;40337;52.978;6.310;2023-02-28T08:01:22;3.00;99.90
54429;DHT22;40337;52.978;6.310;2023-02-28T08:03:47;3.00;99.90
54429;DHT22;40337;52.978;6.310;2023-02-28T08:06:19;3.00;99.90
54429;DHT22;40337;52.978;6.310;2023-02-28T08:08:45;3.10;99.90
54429;DHT22;40337;52.978;6.310;2023-02-28T08:11:11;3.10;99.90
54429;DHT22;40337;52.978;6.310;2023-02-28T08:13:36;3.20;99.90
54429;DHT22;40337;52.978;6.310;2023-02-28T08:16:02;3.10;99.90
54429;DHT22;40337;52.978;6.310;2023-02-28T08:18:28;3.20;99.90
54429;DHT22;40337;52.978;6.310;2023-02-28T08:20:53;3.20;99.90
54429;DHT22;40337;52.978;6.310;2023-02-28T08:23:19;3.10;99.90
54429;DHT22;40337;52.978;6.310;2023-02-28T08:25:44;3.10;99.90
54429;DHT22;40337;52.978;6.310;2023-02-28T08:28:10;3.20;99.90
54429;DHT22;40337;52.978;6.310;2023-02-28T08:30:35;3.20;99.90
54429;DHT22;40337;52.978;6.310;2023-02-28T08:33:01;3.30;99.90
54429;DHT22;40337;52.978;6.310;2023-02-28T08:35:27;3.30;99.90
54429;DHT22;40337;52.978;6.310;2023-02-28T08:37:53;3.30;99.90
54429;DHT22;40337;52.978;6.310;2023-02-28T08:40:18;3.30;99.90
54429;DHT22;40337;52.978;6.310;2023-02-28T08:42:45;3.30;99.90
54429;DHT22;40337;52.978;6.310;2023-02-28T08:45:11;3.40;99.90
54429;DHT22;40337;52.978;6.310;2023-02-28T08:47:37;3.50;99.90
54429;DHT22;40337;52.978;6.310;2023-02-28T08:50:03;3.50;99.90
54429;DHT22;40337;52.978;6.310;2023-02-28T08:52:29;3.60;99.90
54429;DHT22;40337;52.978;6.310;2023-02-28T08:54:55;3.70;99.90
54429;DHT22;40337;52.978;6.310;2023-02-28T08:57:21;3.80;99.90
54429;DHT22;40337;52.978;6.310;2023-02-28T08:59:46;3.90;99.90
54429;DHT22;40337;52.978;6.310;2023-02-28T09:02:15;4.00;99.90
54429;DHT22;40337;52.978;6.310;2023-02-28T09:04:41;4.10;99.90
54429;DHT22;40337;52.978;6.310;2023-02-28T09:07:07;4.20;99.90
54429;DHT22;40337;52.978;6.310;2023-02-28T09:09:33;4.20;99.90
54429;DHT22;40337;52.978;6.310;2023-02-28T09:11:58;4.20;99.90
54429;DHT22;40337;52.978;6.310;2023-02-28T09:14:24;4.40;99.90
54429;DHT22;40337;52.978;6.310;2023-02-28T09:16:50;4.40;99.90
54429;DHT22;40337;52.978;6.310;2023-02-28T09:19:15;4.50;99.90
54429;DHT22;40337;52.978;6.310;2023-02-28T09:21:41;4.60;99.90
54429;DHT22;40337;52.978;6.310;2023-02-28T09:24:06;4.70;99.90
54429;DHT22;40337;52.978;6.310;2023-02-28T09:26:32;5.00;99.90
54429;DHT22;40337;52.978;6.310;2023-02-28T09:28:59;5.20;99.90
54429;DHT22;40337;52.978;6.310;2023-02-28T09:31:27;5.70;99.90
54429;DHT22;40337;52.978;6.310;2023-02-28T09:33:55;5.90;99.90
54429;DHT22;40337;52.978;6.310;2023-02-28T09:36:22;6.00;99.90
54429;DHT22;40337;52.978;6.310;2023-02-28T09:38:48;6.10;99.90
54429;DHT22;40337;52.978;6.310;2023-02-28T09:41:16;6.40;99.90
54429;DHT22;40337;52.978;6.310;2023-02-28T09:43:45;6.40;99.90
54429;DHT22;40337;52.978;6.310;2023-02-28T09:46:33;6.70;99.90
54429;DHT22;40337;52.978;6.310;2023-02-28T09:49:02;7.00;99.90
54429;DHT22;40337;52.978;6.310;2023-02-28T09:52:02;7.30;99.90
54429;DHT22;40337;52.978;6.310;2023-02-28T09:54:31;7.80;99.90
54429;DHT22;40337;52.978;6.310;2023-02-28T09:57:48;7.90;99.90
54429;DHT22;40337;52.978;6.310;2023-02-28T10:03:03;8.90;99.90
54429;DHT22;40337;52.978;6.310;2023-02-28T10:06:02;9.40;99.90
54429;DHT22;40337;52.978;6.310;2023-02-28T10:09:00;10.20;99.90
54429;DHT22;40337;52.978;6.310;2023-02-28T10:11:27;11.10;99.90
54429;DHT22;40337;52.978;6.310;2023-02-28T10:14:02;11.50;99.90
54429;DHT22;40337;52.978;6.310;2023-02-28T10:19:35;11.70;99.90
54429;DHT22;40337;52.978;6.310;2023-02-28T10:22:29;11.70;99.90
54429;DHT22;40337;52.978;6.310;2023-02-28T10:24:57;11.70;99.90
54429;DHT22;40337;52.978;6.310;2023-02-28T10:27:32;12.00;99.90
54429;DHT22;40337;52.978;6.310;2023-02-28T10:29:59;11.90;99.90
54429;DHT22;40337;52.978;6.310;2023-02-28T10:32:34;11.80;99.90
54429;DHT22;40337;52.978;6.310;2023-02-28T10:35:06;11.00;99.90
54429;DHT22;40337;52.978;6.310;2023-02-28T10:37:32;10.40;99.90
54429;DHT22;40337;52.978;6.310;2023-02-28T10:40:07;10.50;99.90
54429;DHT22;40337;52.978;6.310;2023-02-28T10:45:22;10.30;99.90
54429;DHT22;40337;52.978;6.310;2023-02-28T10:47:52;10.20;99.90
54429;DHT22;40337;52.978;6.310;2023-02-28T10:50:34;10.20;99.90
54429;DHT22;40337;52.978;6.310;2023-02-28T10:56:02;10.60;99.90
54429;DHT22;40337;52.978;6.310;2023-02-28T10:58:53;10.80;99.90
54429;DHT22;40337;52.978;6.310;2023-02-28T11:01:23;11.20;99.90
54429;DHT22;40337;52.978;6.310;2023-02-28T11:03:50;11.20;99.70
54429;DHT22;40337;52.978;6.310;2023-02-28T11:08:53;11.60;99.00
54429;DHT22;40337;52.978;6.310;2023-02-28T11:11:20;11.70;97.30
54429;DHT22;40337;52.978;6.310;2023-02-28T11:13:48;11.70;96.70
54429;DHT22;40337;52.978;6.310;2023-02-28T11:16:15;11.30;97.60
54429;DHT22;40337;52.978;6.310;2023-02-28T11:18:50;11.30;97.80
54429;DHT22;40337;52.978;6.310;2023-02-28T11:23:54;11.70;96.50
54429;DHT22;40337;52.978;6.310;2023-02-28T11:26:45;11.80;96.60
54429;DHT22;40337;52.978;6.310;2023-02-28T11:29:19;11.80;95.50
54429;DHT22;40337;52.978;6.310;2023-02-28T11:34:31;12.40;96.80
54429;DHT22;40337;52.978;6.310;2023-02-28T11:36:59;12.70;95.20
54429;DHT22;40337;52.978;6.310;2023-02-28T11:39:26;12.90;94.70
54429;DHT22;40337;52.978;6.310;2023-02-28T11:42:29;13.20;93.80
54429;DHT22;40337;52.978;6.310;2023-02-28T11:47:59;12.60;93.30
54429;DHT22;40337;52.978;6.310;2023-02-28T11:53:51;12.20;92.90
54429;DHT22;40337;52.978;6.310;2023-02-28T11:56:37;11.90;93.90
54429;DHT22;40337;52.978;6.310;2023-02-28T11:59:09;13.00;93.80
54429;DHT22;40337;52.978;6.310;2023-02-28T12:05:01;14.00;91.10
54429;DHT22;40337;52.978;6.310;2023-02-28T12:07:55;14.80;90.30
54429;DHT22;40337;52.978;6.310;2023-02-28T12:10:24;15.50;90.10
54429;DHT22;40337;52.978;6.310;2023-02-28T12:15:49;15.90;83.80
54429;DHT22;40337;52.978;6.310;2023-02-28T12:21:29;16.30;79.60
54429;DHT22;40337;52.978;6.310;2023-02-28T12:26:44;16.00;76.20
54429;DHT22;40337;52.978;6.310;2023-02-28T12:32:00;13.40;80.70
54429;DHT22;40337;52.978;6.310;2023-02-28T12:34:36;12.60;83.20
54429;DHT22;40337;52.978;6.310;2023-02-28T12:37:07;12.50;87.20
54429;DHT22;40337;52.978;6.310;2023-02-28T12:39:41;12.50;88.70
54429;DHT22;40337;52.978;6.310;2023-02-28T12:42:21;12.50;87.10
54429;DHT22;40337;52.978;6.310;2023-02-28T12:45:01;12.10;87.50
54429;DHT22;40337;52.978;6.310;2023-02-28T12:47:27;11.20;90.20
54429;DHT22;40337;52.978;6.310;2023-02-28T12:49:59;11.40;92.60
54429;DHT22;40337;52.978;6.310;2023-02-28T13:01:20;12.60;89.30
54429;DHT22;40337;52.978;6.310;2023-02-28T13:09:38;12.40;90.80
54429;DHT22;40337;52.978;6.310;2023-02-28T13:12:13;12.50;90.80
54429;DHT22;40337;52.978;6.310;2023-02-28T13:14:39;12.00;90.50
54429;DHT22;40337;52.978;6.310;2023-02-28T13:24:57;10.50;91.40
54429;DHT22;40337;52.978;6.310;2023-02-28T13:29:52;10.30;94.40
54429;DHT22;40337;52.978;6.310;2023-02-28T13:32:30;10.50;93.10
54429;DHT22;40337;52.978;6.310;2023-02-28T13:39:49;10.80;90.90
54429;DHT22;40337;52.978;6.310;2023-02-28T13:47:51;10.90;92.30
54429;DHT22;40337;52.978;6.310;2023-02-28T13:58:59;10.80;92.60
54429;DHT22;40337;52.978;6.310;2023-02-28T14:01:51;10.60;94.10
54429;DHT22;40337;52.978;6.310;2023-02-28T14:04:46;10.70;93.40
54429;DHT22;40337;52.978;6.310;2023-02-28T14:07:21;10.80;93.00
54429;DHT22;40337;52.978;6.310;2023-02-28T14:10:03;10.80;93.30
54429;DHT22;40337;52.978;6.310;2023-02-28T14:15:38;11.10;94.00
54429;DHT22;40337;52.978;6.310;2023-02-28T14:18:17;11.20;93.40
54429;DHT22;40337;52.978;6.310;2023-02-28T14:20:44;11.20;93.10
54429;DHT22;40337;52.978;6.310;2023-02-28T14:23:35;11.20;92.50
54429;DHT22;40337;52.978;6.310;2023-02-28T14:31:36;11.10;90.90
54429;DHT22;40337;52.978;6.310;2023-02-28T14:36:47;11.10;90.10
54429;DHT22;40337;52.978;6.310;2023-02-28T14:39:16;11.10;92.00
54429;DHT22;40337;52.978;6.310;2023-02-28T14:41:43;11.00;92.10
54429;DHT22;40337;52.978;6.310;2023-02-28T14:44:16;10.90;91.20
54429;DHT22;40337;52.978;6.310;2023-02-28T14:46:43;10.80;90.50
54429;DHT22;40337;52.978;6.310;2023-02-28T14:49:58;10.60;91.50
54429;DHT22;40337;52.978;6.310;2023-02-28T14:55:15;10.10;91.30
54429;DHT22;40337;52.978;6.310;2023-02-28T14:57:51;9.90;92.10
54429;DHT22;40337;52.978;6.310;2023-02-28T15:02:48;9.80;93.20
54429;DHT22;40337;52.978;6.310;2023-02-28T15:08:01;9.70;93.20
54429;DHT22;40337;52.978;6.310;2023-02-28T15:10:28;9.80;92.80
54429;DHT22;40337;52.978;6.310;2023-02-28T15:13:07;9.90;94.60
54429;DHT22;40337;52.978;6.310;2023-02-28T15:15:35;10.00;94.20
54429;DHT22;40337;52.978;6.310;2023-02-28T15:18:05;10.00;93.80
54429;DHT22;40337;52.978;6.310;2023-02-28T15:20:33;9.90;93.90
54429;DHT22;40337;52.978;6.310;2023-02-28T15:22:59;9.90;94.80
54429;DHT22;40337;52.978;6.310;2023-02-28T15:25:26;9.80;95.10
54429;DHT22;40337;52.978;6.310;2023-02-28T15:27:54;9.70;95.30
54429;DHT22;40337;52.978;6.310;2023-02-28T15:30:28;9.60;95.70
54429;DHT22;40337;52.978;6.310;2023-02-28T15:33:22;9.50;95.60
54429;DHT22;40337;52.978;6.310;2023-02-28T15:35:49;9.30;95.30
54429;DHT22;40337;52.978;6.310;2023-02-28T15:38:26;9.10;95.70
54429;DHT22;40337;52.978;6.310;2023-02-28T15:40:54;9.00;96.30
54429;DHT22;40337;52.978;6.310;2023-02-28T15:43:25;9.00;97.30
54429;DHT22;40337;52.978;6.310;2023-02-28T15:46:02;9.00;98.00
54429;DHT22;40337;52.978;6.310;2023-02-28T15:48:37;9.00;97.70
54429;DHT22;40337;52.978;6.310;2023-02-28T15:51:19;8.90;99.50
54429;DHT22;40337;52.978;6.310;2023-02-28T15:53:51;8.90;99.30
54429;DHT22;40337;52.978;6.310;2023-02-28T15:56:34;8.80;99.60
54429;DHT22;40337;52.978;6.310;2023-02-28T15:59:06;8.80;99.90
54429;DHT22;40337;52.978;6.310;2023-02-28T16:01:37;8.70;98.80
54429;DHT22;40337;52.978;6.310;2023-02-28T16:04:06;8.60;99.00
54429;DHT22;40337;52.978;6.310;2023-02-28T16:09:03;8.50;99.90
54429;DHT22;40337;52.978;6.310;2023-02-28T16:11:39;8.50;99.90
54429;DHT22;40337;52.978;6.310;2023-02-28T16:14:07;8.40;99.90
54429;DHT22;40337;52.978;6.310;2023-02-28T16:16:34;8.30;99.90
54429;DHT22;40337;52.978;6.310;2023-02-28T16:19:08;8.20;99.90
54429;DHT22;40337;52.978;6.310;2023-02-28T16:21:33;8.10;99.90
54429;DHT22;40337;52.978;6.310;2023-02-28T16:23:59;8.00;99.90
54429;DHT22;40337;52.978;6.310;2023-02-28T16:26:25;7.90;99.90
54429;DHT22;40337;52.978;6.310;2023-02-28T16:29:01;7.90;99.90
54429;DHT22;40337;52.978;6.310;2023-02-28T16:31:27;7.80;99.90
54429;DHT22;40337;52.978;6.310;2023-02-28T16:33:54;7.60;99.90
54429;DHT22;40337;52.978;6.310;2023-02-28T16:36:22;7.60;99.90
54429;DHT22;40337;52.978;6.310;2023-02-28T16:38:50;7.40;99.90
54429;DHT22;40337;52.978;6.310;2023-02-28T16:41:21;7.40;99.90
54429;DHT22;40337;52.978;6.310;2023-02-28T16:43:49;7.30;99.90
54429;DHT22;40337;52.978;6.310;2023-02-28T16:46:16;7.20;99.90
54429;DHT22;40337;52.978;6.310;2023-02-28T16:48:43;7.10;99.90
54429;DHT22;40337;52.978;6.310;2023-02-28T16:51:13;7.00;99.90
54429;DHT22;40337;52.978;6.310;2023-02-28T16:53:39;6.90;99.90
54429;DHT22;40337;52.978;6.310;2023-02-28T16:56:21;6.80;99.90
54429;DHT22;40337;52.978;6.310;2023-02-28T16:58:48;6.70;99.90
54429;DHT22;40337;52.978;6.310;2023-02-28T17:01:16;6.50;99.90
54429;DHT22;40337;52.978;6.310;2023-02-28T17:03:42;6.40;99.90
54429;DHT22;40337;52.978;6.310;2023-02-28T17:06:23;6.30;99.90
54429;DHT22;40337;52.978;6.310;2023-02-28T17:08:52;6.20;99.90
54429;DHT22;40337;52.978;6.310;2023-02-28T17:11:18;6.00;99.90
54429;DHT22;40337;52.978;6.310;2023-02-28T17:13:44;6.00;99.90
54429;DHT22;40337;52.978;6.310;2023-02-28T17:16:26;5.80;99.90
54429;DHT22;40337;52.978;6.310;2023-02-28T17:18:54;5.70;99.90
54429;DHT22;40337;52.978;6.310;2023-02-28T17:21:21;5.60;99.90
54429;DHT22;40337;52.978;6.310;2023-02-28T17:23:47;5.50;99.90
54429;DHT22;40337;52.978;6.310;2023-02-28T17:26:15;5.30;99.90
54429;DHT22;40337;52.978;6.310;2023-02-28T17:28:41;5.30;99.90
54429;DHT22;40337;52.978;6.310;2023-02-28T17:31:07;5.20;99.90
54429;DHT22;40337;52.978;6.310;2023-02-28T17:33:33;5.00;99.90
54429;DHT22;40337;52.978;6.310;2023-02-28T17:35:58;5.00;99.90
54429;DHT22;40337;52.978;6.310;2023-02-28T17:38:24;4.90;99.90
54429;DHT22;40337;52.978;6.310;2023-02-28T17:40:49;4.80;99.90
54429;DHT22;40337;52.978;6.310;2023-02-28T17:43:15;4.80;99.90
54429;DHT22;40337;52.978;6.310;2023-02-28T17:45:50;4.70;99.90
54429;DHT22;40337;52.978;6.310;2023-02-28T17:48:16;4.70;99.90
54429;DHT22;40337;52.978;6.310;2023-02-28T17:50:42;4.70;99.90
54429;DHT22;40337;52.978;6.310;2023-02-28T17:53:13;4.70;99.90
54429;DHT22;40337;52.978;6.310;2023-02-28T17:55:48;4.60;99.90
54429;DHT22;40337;52.978;6.310;2023-02-28T17:58:14;4.50;99.90
54429;DHT22;40337;52.978;6.310;2023-02-28T18:00:40;4.50;99.90
54429;DHT22;40337;52.978;6.310;2023-02-28T18:03:06;4.50;99.90
54429;DHT22;40337;52.978;6.310;2023-02-28T18:05:32;4.40;99.90
54429;DHT22;40337;52.978;6.310;2023-02-28T18:07:58;4.30;99.90
54429;DHT22;40337;52.978;6.310;2023-02-28T18:10:23;4.30;99.90
54429;DHT22;40337;52.978;6.310;2023-02-28T18:12:50;4.10;99.90